Terminal Aerodrome Forecast
Issued by NWS

Home | Current Version | Previous Version | Text Only | Print | Product List | Glossary On
Versions: 1 2 3 4 5 6 7 8 9 10 11 12 13 14 15 16 17 18 19
000
FTUS46 KHNX 241722
TAFBFL
TAF
KBFL 241722Z 2418/2518 VRB03KT 3SM BR BKN250
     FM242000 30007KT 4SM HZ BKN250
     FM250200 33007KT P6SM SCT040 BKN250
     FM250500 33009KT 4SM -RA OVC040
     FM251000 32013KT P6SM BKN040=

USA.gov is the U.S. government's official web portal to all federal, state and local government web resources and services.